Time;durP1;ratioP1;P1;durP2;ratioP2;P2;SDS_P1;SDS_P2;PMS_P1;PMS_P2;Temp;Humidity;BMP_temperature;BMP_pressure;BME280_temperature;BME280_humidity;BME280_pressure;Samples;Min_cycle;Max_cycle;Signal;HPM_P1;HPM_P2
2023/02/15 00:01:40;;;;;;;61.75;56.60;;;;;;;0.76;86.30;99777.59;4949411;28;20026;-73
2023/02/15 00:04:06;;;;;;;66.28;60.25;;;;;;;0.80;86.48;99773.66;4975679;28;20031;-73
2023/02/15 00:06:32;;;;;;;65.35;58.90;;;;;;;0.72;86.53;99773.56;4991838;28;20081;-74
2023/02/15 00:08:58;;;;;;;63.30;57.97;;;;;;;0.66;85.85;99772.31;4991366;28;20034;-73
2023/02/15 00:11:39;;;;;;;56.70;52.15;;;;;;;0.68;85.67;99777.47;4993047;28;20031;-75
2023/02/15 00:14:10;;;;;;;56.55;51.78;;;;;;;0.61;85.87;99768.41;4991940;28;20085;-73
2023/02/15 00:16:35;;;;;;;58.40;53.90;;;;;;;0.77;86.00;99768.63;4975452;28;20038;-73
2023/02/15 00:19:01;;;;;;;58.42;53.85;;;;;;;0.76;85.23;99766.16;4991246;28;20124;-73
2023/02/15 00:21:31;;;;;;;58.65;53.67;;;;;;;0.67;85.79;99762.56;4983852;28;20034;-73
2023/02/15 00:23:58;;;;;;;55.60;50.60;;;;;;;0.58;86.31;99768.72;4987168;28;20040;-73
2023/02/15 00:26:24;;;;;;;57.30;52.15;;;;;;;0.63;86.16;99766.47;4991629;28;20022;-73
2023/02/15 00:28:50;;;;;;;59.40;53.10;;;;;;;0.47;85.85;99766.19;4961640;28;20034;-73
2023/02/15 00:31:15;;;;;;;60.17;54.53;;;;;;;0.52;85.82;99758.66;4992805;28;20040;-72
2023/02/15 00:33:40;;;;;;;56.30;51.63;;;;;;;0.61;85.71;99757.81;4991445;28;20206;-73
2023/02/15 00:36:08;;;;;;;58.20;53.28;;;;;;;0.64;85.58;99757.53;4991397;28;20030;-73
2023/02/15 00:38:34;;;;;;;59.60;54.10;;;;;;;0.46;85.72;99753.94;4974528;28;20034;-74
2023/02/15 00:41:02;;;;;;;59.40;53.92;;;;;;;0.50;86.86;99757.97;4959168;28;20030;-74
2023/02/15 00:43:29;;;;;;;62.55;56.50;;;;;;;0.42;86.14;99753.38;4991163;28;20030;-73
2023/02/15 00:45:54;;;;;;;69.95;56.75;;;;;;;0.24;86.37;99744.47;4991314;28;20587;-74
2023/02/15 00:48:20;;;;;;;59.40;53.65;;;;;;;0.33;86.69;99748.09;4990049;28;20073;-74
2023/02/15 00:50:46;;;;;;;57.40;53.17;;;;;;;0.39;85.88;99756.34;4975004;28;20117;-74
2023/02/15 00:53:12;;;;;;;54.78;49.90;;;;;;;0.25;85.93;99750.63;4975428;28;20136;-75
2023/02/15 00:55:39;;;;;;;55.42;51.00;;;;;;;0.42;85.42;99741.97;4958941;28;20030;-75
2023/02/15 00:58:05;;;;;;;56.17;51.70;;;;;;;0.33;85.98;99740.13;4957450;28;20041;-74
2023/02/15 01:00:31;;;;;;;56.50;51.40;;;;;;;0.31;85.79;99739.44;4971822;28;20042;-75
2023/02/15 01:02:56;;;;;;;59.65;54.97;;;;;;;0.36;85.50;99731.91;4987846;28;20034;-75
2023/02/15 01:05:21;;;;;;;60.25;55.42;;;;;;;0.36;86.00;99737.22;4974794;28;20038;-74
2023/02/15 01:07:47;;;;;;;60.03;55.22;;;;;;;0.30;86.25;99737.78;4990503;28;20113;-74
2023/02/15 01:10:12;;;;;;;58.53;54.08;;;;;;;0.48;85.00;99739.56;4991005;28;20083;-75
2023/02/15 01:12:37;;;;;;;81.57;59.78;;;;;;;-0.04;86.82;99740.88;4972297;28;20045;-75
2023/02/15 01:15:05;;;;;;;356.52;82.47;;;;;;;-0.34;88.52;99754.22;4964882;28;20068;-75
2023/02/15 01:17:31;;;;;;;81.70;58.78;;;;;;;-0.02;88.37;99738.94;4990353;28;20038;-74
2023/02/15 01:19:57;;;;;;;135.25;66.30;;;;;;;-0.01;87.72;99740.59;4974780;28;20026;-75
2023/02/15 01:22:22;;;;;;;124.70;67.15;;;;;;;-0.39;89.30;99735.28;4958552;28;20404;-75
2023/02/15 01:24:49;;;;;;;107.00;62.53;;;;;;;-0.27;89.08;99736.84;4990814;28;20175;-76
2023/02/15 01:27:14;;;;;;;88.43;59.95;;;;;;;-0.30;89.44;99737.09;4974095;28;20125;-74
2023/02/15 01:29:40;;;;;;;115.07;64.35;;;;;;;-0.30;90.25;99739.75;4990934;28;20114;-74
2023/02/15 01:32:05;;;;;;;66.35;58.00;;;;;;;-0.12;88.42;99726.69;4990822;28;20042;-73
2023/02/15 01:34:31;;;;;;;103.32;63.90;;;;;;;-0.46;89.10;99728.88;4974428;28;20101;-74
2023/02/15 01:36:56;;;;;;;86.85;61.05;;;;;;;-0.35;89.45;99731.38;4974272;28;20465;-75
2023/02/15 01:39:21;;;;;;;60.92;55.60;;;;;;;-0.02;88.40;99725.69;4974670;28;20547;-74
2023/02/15 01:41:47;;;;;;;84.72;58.95;;;;;;;-0.27;88.55;99734.19;4974515;28;20034;-75
2023/02/15 01:44:46;;;;;;;61.40;55.70;;;;;;;0.03;87.77;99725.25;4990653;28;20085;-75
2023/02/15 01:47:22;;;;;;;148.43;68.10;;;;;;;-0.40;88.96;99722.19;4967091;28;20053;-75
2023/02/15 01:49:48;;;;;;;;;;;;;;;-0.23;88.22;99719.69;4975113;28;20049;-74
2023/02/15 01:52:15;;;;;;;63.60;58.63;;;;;;;-0.10;88.54;99720.28;4974591;28;19909;-75
2023/02/15 01:54:43;;;;;;;70.75;60.95;;;;;;;-0.52;88.91;99718.84;4974561;28;20281;-74
2023/02/15 01:57:12;;;;;;;106.70;64.82;;;;;;;-0.61;89.46;99706.44;4973861;28;20400;-74
2023/02/15 01:59:39;;;;;;;74.90;59.42;;;;;;;-0.27;88.52;99713.00;4962299;28;20050;-75
2023/02/15 02:02:05;;;;;;;60.95;55.40;;;;;;;-0.13;87.79;99704.66;4983959;28;20037;-74
2023/02/15 02:04:34;;;;;;;60.53;55.83;;;;;;;0.08;86.94;99708.94;4977825;28;20428;-74
2023/02/15 02:07:00;;;;;;;58.22;53.50;;;;;;;0.18;86.48;99702.69;4993572;28;20026;-74
2023/02/15 02:09:26;;;;;;;58.38;53.63;;;;;;;0.16;86.52;99695.84;4977802;28;20034;-74
2023/02/15 02:11:53;;;;;;;74.90;56.67;;;;;;;-0.19;87.33;99699.09;4961762;28;20029;-74
2023/02/15 02:14:19;;;;;;;65.35;58.72;;;;;;;-0.39;88.08;99707.97;4993955;28;20049;-75
2023/02/15 02:17:22;;;;;;;57.72;53.10;;;;;;;-0.02;87.16;99701.84;4977622;28;20800;-74
2023/02/15 02:20:29;;;;;;;54.45;50.42;;;;;;;0.14;85.95;99695.16;4957827;28;20038;-75
2023/02/15 02:23:13;;;;;;;55.17;50.97;;;;;;;0.18;86.33;99685.94;4970877;28;20042;-74
2023/02/15 02:25:52;;;;;;;54.13;50.00;;;;;;;0.19;85.94;99687.63;4977637;28;20030;-74
2023/02/15 02:28:41;;;;;;;51.47;47.58;;;;;;;0.07;85.85;99686.91;4960927;28;20133;-74
2023/02/15 02:31:34;;;;;;;55.10;50.65;;;;;;;0.12;85.42;99681.22;4977700;28;20485;-74
2023/02/15 02:34:50;;;;;;;55.88;51.38;;;;;;;-0.11;86.34;99686.81;4994959;28;20404;-74
2023/02/15 02:37:39;;;;;;;53.90;50.00;;;;;;;-0.03;85.90;99683.47;4937119;29;20488;-75
2023/02/15 02:40:24;;;;;;;52.78;48.88;;;;;;;0.02;86.11;99678.59;4977507;28;20044;-75
2023/02/15 02:42:57;;;;;;;53.35;49.35;;;;;;;0.05;85.51;99675.63;4994796;28;20125;-74
2023/02/15 02:45:26;;;;;;;51.17;47.55;;;;;;;-0.04;85.33;99672.03;4993483;28;20177;-75
2023/02/15 02:48:08;;;;;;;53.28;49.67;;;;;;;0.10;84.66;99667.25;4976658;28;20072;-74
2023/02/15 02:50:33;;;;;;;50.38;46.78;;;;;;;-0.02;85.31;99675.38;4955254;28;20030;-75
2023/02/15 02:52:59;;;;;;;49.90;46.33;;;;;;;-0.36;87.29;99671.50;4977396;28;20511;-75
2023/02/15 02:55:45;;;;;;;51.10;47.63;;;;;;;-0.31;85.88;99671.94;4984746;28;20035;-75
2023/02/15 02:58:19;;;;;;;53.70;48.83;;;;;;;-0.51;86.67;99672.88;4972866;28;20041;-75
2023/02/15 03:00:49;;;;;;;49.10;44.95;;;;;;;-0.54;86.60;99662.59;4954928;28;20497;-75
2023/02/15 03:03:24;;;;;;;50.65;47.03;;;;;;;-0.18;85.54;99669.81;4992115;28;20030;-75
2023/02/15 03:05:51;;;;;;;49.60;45.85;;;;;;;-0.14;85.81;99663.25;4993091;28;20054;-74
2023/02/15 03:08:21;;;;;;;48.53;45.15;;;;;;;-0.36;86.84;99668.84;4976248;28;20026;-74
2023/02/15 03:10:48;;;;;;;48.63;45.33;;;;;;;-0.13;85.98;99664.94;4992351;28;20448;-74
2023/02/15 03:13:14;;;;;;;49.03;45.60;;;;;;;-0.20;85.78;99666.47;4976878;28;20022;-74
2023/02/15 03:16:25;;;;;;;48.45;44.95;;;;;;;-0.30;86.16;99665.63;4976480;28;20030;-74
2023/02/15 03:18:39;;;;;;;51.00;46.97;;;;;;;-0.28;85.62;99674.28;4979168;28;20490;-74
2023/02/15 03:21:07;;;;;;;47.40;44.17;;;;;;;-0.45;86.23;99671.50;4976408;28;20034;-74
2023/02/15 03:23:36;;;;;;;49.22;45.67;;;;;;;-0.76;87.32;99678.69;4960804;28;20511;-76
2023/02/15 03:26:03;;;;;;;47.55;44.35;;;;;;;-0.53;86.90;99674.81;4976290;28;20037;-76
2023/02/15 03:28:36;;;;;;;48.88;45.50;;;;;;;-0.29;86.10;99680.56;4992250;28;20104;-74
2023/02/15 03:31:04;;;;;;;47.97;44.80;;;;;;;-0.25;85.47;99678.44;4976392;28;20061;-74
2023/02/15 03:33:30;;;;;;;49.78;46.28;;;;;;;-0.20;85.74;99681.53;4992557;28;20026;-74
2023/02/15 03:36:04;;;;;;;44.63;41.67;;;;;;;-0.27;86.05;99681.25;4992444;28;20046;-74
2023/02/15 03:38:41;;;;;;;47.33;44.03;;;;;;;-0.35;85.51;99681.09;4993090;28;20038;-74
2023/02/15 03:41:10;;;;;;;45.40;42.30;;;;;;;-0.13;84.59;99680.81;4992424;28;20050;-76
2023/02/15 03:43:49;;;;;;;42.47;39.58;;;;;;;-0.16;85.02;99672.31;4992260;28;20081;-75
2023/02/15 03:46:33;;;;;;;45.03;41.75;;;;;;;-0.36;85.08;99676.78;4992248;28;20096;-76
2023/02/15 03:49:11;;;;;;;46.50;43.45;;;;;;;-0.11;84.69;99680.69;4975466;28;20041;-76
2023/02/15 03:51:39;;;;;;;45.45;42.42;;;;;;;-0.19;84.63;99672.63;4992134;28;20113;-76
2023/02/15 03:54:06;;;;;;;48.33;44.95;;;;;;;-0.12;85.00;99676.38;4975892;28;20084;-76
2023/02/15 03:56:33;;;;;;;48.70;45.13;;;;;;;-0.18;85.34;99675.13;4991917;28;20096;-76
2023/02/15 04:01:58;;;;;;;47.88;44.25;;;;;;;-0.53;86.02;99679.28;4980224;28;20050;-76
2023/02/15 04:04:50;;;;;;;47.03;43.75;;;;;;;-0.30;85.44;99670.94;4991740;28;20684;-74
2023/02/15 04:07:15;;;;;;;46.70;43.50;;;;;;;-0.20;85.12;99671.78;4960498;28;20045;-74
2023/02/15 04:12:24;;;;;;;51.05;46.65;;;;;;;-0.46;85.26;99670.66;4964990;28;20034;-76
2023/02/15 04:17:36;;;;;;;47.25;43.90;;;;;;;-0.39;86.39;99670.94;4991243;28;20540;-75
2023/02/15 04:25:30;;;;;;;48.42;44.92;;;;;;;-0.31;85.50;99671.94;4992751;28;20050;-74
2023/02/15 04:27:55;;;;;;;48.28;44.78;;;;;;;-0.33;86.29;99676.53;4974721;28;20052;-75
2023/02/15 04:30:23;;;;;;;49.50;45.80;;;;;;;-0.25;85.00;99679.28;4990357;28;20500;-75
2023/02/15 04:32:48;;;;;;;52.80;49.00;;;;;;;-0.31;85.56;99674.56;4963913;28;20030;-75
2023/02/15 04:35:14;;;;;;;48.97;45.47;;;;;;;-0.40;85.05;99678.06;4962042;28;20327;-75
2023/02/15 04:37:40;;;;;;;46.63;43.17;;;;;;;-0.38;85.47;99668.16;4990895;28;20034;-74
2023/02/15 04:40:08;;;;;;;46.28;42.80;;;;;;;-0.37;85.69;99672.47;4978269;28;20393;-74
2023/02/15 04:42:34;;;;;;;48.88;45.28;;;;;;;-0.39;85.99;99676.22;4964129;28;20018;-75
2023/02/15 04:44:59;;;;;;;50.28;46.58;;;;;;;-0.30;86.07;99660.34;4974975;28;20060;-74
2023/02/15 04:47:25;;;;;;;53.60;49.63;;;;;;;-0.34;85.62;99661.59;4974396;28;20599;-74
2023/02/15 04:49:50;;;;;;;52.58;48.38;;;;;;;-0.42;85.98;99665.94;4978160;28;20114;-75
2023/02/15 04:52:17;;;;;;;51.03;47.13;;;;;;;-0.39;85.98;99655.91;4991245;28;20091;-74
2023/02/15 04:54:43;;;;;;;51.90;48.13;;;;;;;-0.36;85.86;99655.63;4991147;28;20038;-75
2023/02/15 04:57:08;;;;;;;49.10;45.35;;;;;;;-0.43;86.17;99646.56;4990654;28;20033;-74
2023/02/15 04:59:34;;;;;;;50.25;46.80;;;;;;;-0.29;85.73;99656.75;4978305;28;20070;-74
2023/02/15 05:01:59;;;;;;;48.38;45.08;;;;;;;-0.31;85.73;99649.91;4980432;28;20376;-74
2023/02/15 05:04:24;;;;;;;51.80;47.90;;;;;;;-0.34;85.39;99651.03;4975986;28;20113;-74
2023/02/15 05:06:50;;;;;;;51.45;47.47;;;;;;;-0.17;84.62;99645.03;4954982;28;20477;-74
2023/02/15 05:09:16;;;;;;;51.53;47.75;;;;;;;-0.31;85.38;99642.81;4986397;28;20129;-73
2023/02/15 05:11:41;;;;;;;48.60;44.95;;;;;;;-0.52;85.76;99633.34;4990981;28;20113;-74
2023/02/15 05:14:07;;;;;;;49.55;46.05;;;;;;;-0.45;84.66;99631.81;4992092;28;20030;-74
2023/02/15 05:16:32;;;;;;;46.50;43.05;;;;;;;-0.48;84.78;99632.06;4990835;28;20439;-76
2023/02/15 05:18:57;;;;;;;48.17;44.35;;;;;;;-0.72;85.69;99632.47;4961141;28;20539;-74
2023/02/15 05:21:23;;;;;;;49.72;46.03;;;;;;;-0.70;85.96;99635.81;4991295;28;20046;-76
2023/02/15 05:23:48;;;;;;;48.05;44.72;;;;;;;-0.42;85.90;99632.34;4990845;28;20042;-75
2023/02/15 05:29:02;;;;;;;43.95;40.88;;;;;;;-0.68;85.13;99633.06;4990535;28;20559;-75
2023/02/15 05:31:28;;;;;;;45.72;42.63;;;;;;;-0.58;84.87;99618.84;4986550;28;20019;-73
2023/02/15 05:33:53;;;;;;;46.90;43.45;;;;;;;-0.62;85.87;99617.47;4989018;28;20727;-74
2023/02/15 05:36:18;;;;;;;49.67;46.35;;;;;;;-0.81;85.96;99622.72;4994528;28;20034;-75
2023/02/15 05:38:44;;;;;;;48.05;44.70;;;;;;;-0.77;86.01;99624.16;4977774;28;20125;-74
2023/02/15 05:41:10;;;;;;;47.38;44.08;;;;;;;-0.99;86.74;99619.09;4995737;28;20022;-74
2023/02/15 05:43:36;;;;;;;46.88;43.25;;;;;;;-0.77;86.00;99624.16;4995716;28;20042;-73
2023/02/15 05:46:02;;;;;;;48.25;44.78;;;;;;;-0.74;86.12;99629.16;4994447;28;20297;-73
2023/02/15 05:48:27;;;;;;;47.30;43.70;;;;;;;-0.74;86.08;99626.50;4993706;28;20374;-73
2023/02/15 05:51:04;;;;;;;47.40;43.83;;;;;;;-0.80;86.10;99635.00;4994423;28;20168;-74
2023/02/15 05:53:32;;;;;;;47.72;44.03;;;;;;;-0.64;85.98;99635.28;4978073;28;20030;-74
2023/02/15 05:56:01;;;;;;;45.78;42.50;;;;;;;-0.66;85.97;99626.66;4994034;28;20022;-73
2023/02/15 05:58:29;;;;;;;47.97;44.38;;;;;;;-0.63;85.90;99626.34;4989331;28;20073;-73
2023/02/15 06:00:55;;;;;;;49.70;46.00;;;;;;;-0.63;86.08;99623.72;4975523;28;20034;-73
2023/02/15 06:03:22;;;;;;;57.03;52.50;;;;;;;-0.56;85.16;99627.47;4993921;28;20415;-74
2023/02/15 06:05:47;;;;;;;47.47;43.95;;;;;;;-0.58;85.29;99634.72;4977890;28;20373;-75
2023/02/15 06:08:12;;;;;;;46.75;43.45;;;;;;;-0.51;84.73;99630.53;4977371;28;20057;-75
2023/02/15 06:10:39;;;;;;;44.28;41.03;;;;;;;-0.55;84.90;99629.16;4994057;28;20034;-75
2023/02/15 06:13:05;;;;;;;42.13;39.25;;;;;;;-0.50;84.16;99632.22;4994022;28;20097;-74
2023/02/15 06:15:31;;;;;;;39.10;36.38;;;;;;;-0.40;84.23;99627.78;4993944;28;20018;-75
2023/02/15 06:17:56;;;;;;;38.90;36.20;;;;;;;-0.47;84.14;99623.19;4977388;28;20148;-76
2023/02/15 06:20:22;;;;;;;39.80;37.17;;;;;;;-0.39;83.60;99634.72;4977784;28;20038;-75
2023/02/15 06:22:47;;;;;;;39.50;36.80;;;;;;;-0.46;83.48;99625.69;4961461;28;20049;-74
2023/02/15 06:25:12;;;;;;;38.70;36.10;;;;;;;-0.40;83.74;99622.50;4977442;28;20026;-75
2023/02/15 06:27:41;;;;;;;38.78;36.17;;;;;;;-0.40;83.78;99627.78;4976765;28;20428;-75
2023/02/15 06:30:07;;;;;;;39.47;36.75;;;;;;;-0.36;83.75;99634.44;4993638;28;20652;-75
2023/02/15 06:32:33;;;;;;;40.13;37.47;;;;;;;-0.41;83.52;99646.41;4993529;28;20037;-74
2023/02/15 06:34:59;;;;;;;40.83;37.97;;;;;;;-0.50;83.56;99636.69;4993491;28;20030;-76
2023/02/15 06:37:24;;;;;;;38.45;35.78;;;;;;;-0.41;82.91;99636.69;4976951;28;20085;-75
2023/02/15 06:39:49;;;;;;;41.47;38.47;;;;;;;-0.49;83.97;99639.16;4977204;28;20481;-74
2023/02/15 06:42:15;;;;;;;41.63;38.83;;;;;;;-0.54;83.91;99630.84;4994676;28;20042;-75
2023/02/15 06:44:40;;;;;;;42.38;39.40;;;;;;;-0.64;84.88;99630.00;4992921;28;20034;-75
2023/02/15 06:47:05;;;;;;;41.85;39.00;;;;;;;-0.43;83.31;99628.06;4992965;28;20074;-75
2023/02/15 06:49:31;;;;;;;41.30;38.50;;;;;;;-0.44;82.85;99626.38;4993431;28;20578;-76
2023/02/15 06:51:56;;;;;;;39.80;36.90;;;;;;;-0.52;82.96;99615.66;4993347;28;20034;-75
2023/02/15 06:54:22;;;;;;;41.55;38.63;;;;;;;-0.53;84.06;99631.66;4993975;28;20026;-74
2023/02/15 06:56:47;;;;;;;39.08;36.25;;;;;;;-0.57;83.40;99631.13;4980860;28;20684;-75
2023/02/15 06:59:12;;;;;;;38.92;36.22;;;;;;;-0.57;83.69;99625.81;4982912;28;20600;-75
2023/02/15 07:01:38;;;;;;;42.25;39.17;;;;;;;-0.45;83.36;99635.28;4980411;28;20038;-75
2023/02/15 07:04:03;;;;;;;41.53;38.42;;;;;;;-0.65;83.97;99630.94;4976868;28;20031;-74
2023/02/15 07:06:33;;;;;;;41.30;38.42;;;;;;;-0.63;84.09;99639.59;4958584;28;20405;-75
2023/02/15 07:08:58;;;;;;;41.15;38.35;;;;;;;-0.50;83.67;99642.81;4985641;28;20026;-75
2023/02/15 07:14:07;;;;;;;38.85;36.15;;;;;;;-0.33;83.14;99628.88;4979177;28;20030;-75
2023/02/15 07:16:33;;;;;;;40.85;38.00;;;;;;;-0.32;82.54;99630.53;4976698;28;20598;-75
2023/02/15 07:18:58;;;;;;;39.55;36.88;;;;;;;-0.21;82.40;99633.03;4993495;28;20045;-75
2023/02/15 07:21:24;;;;;;;38.50;35.70;;;;;;;-0.27;82.34;99641.56;4968586;28;20695;-75
2023/02/15 07:23:49;;;;;;;39.95;37.15;;;;;;;-0.24;82.70;99632.50;4987811;28;20035;-75
2023/02/15 07:26:14;;;;;;;38.30;35.60;;;;;;;-0.36;82.86;99629.16;4960350;28;20113;-75
2023/02/15 07:28:40;;;;;;;35.50;33.20;;;;;;;-0.34;82.27;99629.84;4974464;28;20038;-75
2023/02/15 07:31:05;;;;;;;38.20;35.50;;;;;;;-0.39;82.37;99626.78;4973307;28;20029;-74
2023/02/15 07:33:32;;;;;;;36.20;33.63;;;;;;;-0.36;82.00;99629.16;4987050;28;20030;-74
2023/02/15 07:35:59;;;;;;;36.42;33.72;;;;;;;-0.68;83.34;99628.59;4992338;28;20038;-74
2023/02/15 07:38:25;;;;;;;167.65;119.10;;;;;;;-0.95;84.36;99637.19;4978796;28;20493;-74
2023/02/15 07:40:51;;;;;;;78.28;64.78;;;;;;;-0.93;85.40;99629.13;4983850;28;20090;-74
2023/02/15 07:43:17;;;;;;;78.85;69.00;;;;;;;-0.67;84.01;99646.13;4988274;28;20125;-74
2023/02/15 07:45:42;;;;;;;72.05;64.43;;;;;;;-0.40;83.49;99648.94;4992275;28;20038;-74
2023/02/15 07:48:08;;;;;;;45.72;42.08;;;;;;;-0.32;83.12;99635.00;4991534;28;20134;-74
2023/02/15 07:50:33;;;;;;;41.72;38.83;;;;;;;-0.36;83.29;99645.03;4992218;28;20057;-74
2023/02/15 07:53:01;;;;;;;40.97;38.13;;;;;;;-0.31;83.67;99636.69;4979064;28;20030;-74
2023/02/15 07:55:26;;;;;;;46.72;43.13;;;;;;;-0.66;84.09;99637.25;4992154;28;20049;-74
2023/02/15 07:57:53;;;;;;;49.25;45.70;;;;;;;-0.39;83.94;99633.88;4990257;28;20069;-74
2023/02/15 08:00:23;;;;;;;51.17;47.25;;;;;;;-0.67;84.92;99640.84;4972744;28;20027;-75
2023/02/15 08:03:12;;;;;;;50.78;46.88;;;;;;;-0.76;86.35;99644.31;4987776;28;20377;-74
2023/02/15 08:05:43;;;;;;;57.63;52.80;;;;;;;-1.08;86.29;99647.19;4992038;28;20481;-74
2023/02/15 08:08:29;;;;;;;54.35;50.03;;;;;;;-0.61;85.19;99648.25;4975147;28;20068;-74
2023/02/15 08:11:25;;;;;;;52.97;48.97;;;;;;;-0.48;84.85;99646.16;4965276;28;20109;-74
2023/02/15 08:13:56;;;;;;;50.63;46.63;;;;;;;-0.40;84.16;99643.66;4991942;28;20048;-74
2023/02/15 08:16:27;;;;;;;48.90;45.05;;;;;;;-0.35;83.92;99641.41;4960358;28;20544;-74
2023/02/15 08:18:53;;;;;;;50.05;46.28;;;;;;;-0.20;83.52;99649.75;4985127;28;20065;-74
2023/02/15 08:21:20;;;;;;;50.67;46.85;;;;;;;-0.13;83.41;99650.88;4991953;28;20602;-74
2023/02/15 08:23:46;;;;;;;49.22;45.58;;;;;;;-0.12;83.65;99645.41;4974851;28;20464;-73
2023/02/15 08:26:11;;;;;;;49.72;45.58;;;;;;;-0.21;83.68;99643.63;4974379;28;20169;-74
2023/02/15 08:28:37;;;;;;;51.85;47.80;;;;;;;-0.47;84.88;99653.13;4974342;28;20042;-74
2023/02/15 08:31:06;;;;;;;56.42;51.88;;;;;;;-0.43;85.25;99649.22;4985641;28;20038;-74
2023/02/15 08:33:32;;;;;;;58.30;53.40;;;;;;;-0.61;85.83;99656.19;4983735;28;20030;-73
2023/02/15 08:36:03;;;;;;;59.25;54.15;;;;;;;-0.48;86.20;99651.44;4991023;28;20373;-74
2023/02/15 08:38:28;;;;;;;61.13;55.55;;;;;;;-0.44;85.32;99654.63;4974881;28;20042;-76
2023/02/15 08:40:54;;;;;;;60.28;54.90;;;;;;;-0.43;85.00;99648.38;4981599;28;20033;-74
2023/02/15 08:43:19;;;;;;;58.55;53.20;;;;;;;-0.81;86.16;99646.53;4991933;28;20038;-74
2023/02/15 08:45:44;;;;;;;62.22;57.20;;;;;;;-0.53;85.93;99648.38;4990845;28;20109;-74
2023/02/15 08:48:10;;;;;;;55.90;51.50;;;;;;;-0.15;84.43;99642.22;4990132;28;20630;-74
2023/02/15 08:50:35;;;;;;;56.47;51.97;;;;;;;-0.41;85.35;99639.31;4958605;28;20113;-74
2023/02/15 08:53:01;;;;;;;53.65;49.58;;;;;;;0.06;83.12;99636.75;4990853;28;20481;-74
2023/02/15 08:55:26;;;;;;;59.78;54.97;;;;;;;0.08;83.32;99637.44;4990863;28;20112;-74
2023/02/15 08:57:55;;;;;;;56.15;51.38;;;;;;;-0.47;83.96;99636.41;4989959;28;20397;-74
2023/02/15 09:00:22;;;;;;;55.78;51.03;;;;;;;-0.13;83.87;99625.22;4975276;28;20033;-74
2023/02/15 09:02:48;;;;;;;64.25;58.17;;;;;;;-0.34;84.96;99632.50;4974929;28;20042;-74
2023/02/15 09:05:13;;;;;;;64.03;58.47;;;;;;;-0.04;83.99;99629.69;4990285;28;20031;-74
2023/02/15 09:07:39;;;;;;;65.18;58.95;;;;;;;-0.21;84.59;99621.63;4972968;28;20092;-73
2023/02/15 09:10:05;;;;;;;65.38;59.83;;;;;;;-0.02;84.33;99626.88;4972892;28;20033;-74
2023/02/15 09:12:30;;;;;;;63.38;57.67;;;;;;;-0.07;84.80;99629.13;4990042;28;20712;-74
2023/02/15 09:14:56;;;;;;;61.25;55.58;;;;;;;0.15;83.02;99627.97;4990026;28;20018;-74
2023/02/15 09:17:22;;;;;;;61.72;56.17;;;;;;;0.15;82.98;99612.91;4976628;28;20516;-74
2023/02/15 09:19:47;;;;;;;65.43;59.17;;;;;;;-0.11;84.25;99623.28;4991479;28;20185;-73
2023/02/15 09:22:13;;;;;;;62.42;56.72;;;;;;;-0.02;83.13;99625.06;4988695;28;20672;-73
2023/02/15 09:24:38;;;;;;;62.20;56.53;;;;;;;0.10;83.35;99614.31;4990306;28;20077;-74
2023/02/15 09:27:04;;;;;;;67.93;61.65;;;;;;;-0.10;83.94;99622.31;4989809;28;20057;-73
2023/02/15 09:29:29;;;;;;;68.00;61.42;;;;;;;-0.14;84.02;99628.84;4988154;28;20649;-73
2023/02/15 09:31:54;;;;;;;66.15;59.88;;;;;;;-0.03;84.46;99631.34;4955972;28;20030;-74
2023/02/15 09:34:21;;;;;;;65.25;59.03;;;;;;;-0.05;83.77;99638.59;4991113;28;20420;-75
2023/02/15 09:36:47;;;;;;;62.42;56.83;;;;;;;0.13;84.11;99636.06;4990156;28;20037;-74
2023/02/15 09:39:24;;;;;;;60.85;55.42;;;;;;;0.19;83.27;99634.66;4990253;28;20038;-73
2023/02/15 09:42:19;;;;;;;66.60;60.63;;;;;;;0.13;83.91;99657.25;4989278;28;20038;-74
2023/02/15 09:45:00;;;;;;;65.78;59.92;;;;;;;0.25;82.97;99655.25;4991357;28;20030;-74
2023/02/15 09:47:29;;;;;;;64.10;58.20;;;;;;;0.24;83.52;99648.28;4990970;28;20057;-74
2023/02/15 09:50:21;;;;;;;61.50;56.08;;;;;;;0.45;83.00;99640.97;4990157;28;20045;-74
2023/02/15 09:53:24;;;;;;;60.83;55.33;;;;;;;0.41;82.41;99650.19;4991547;28;20084;-75
2023/02/15 09:56:15;;;;;;;60.78;55.22;;;;;;;0.57;82.08;99639.81;4990360;28;20038;-73
2023/02/15 09:59:00;;;;;;;60.10;54.72;;;;;;;0.49;82.15;99642.38;4983771;28;20400;-74
2023/02/15 10:01:53;;;;;;;56.05;51.03;;;;;;;0.63;82.13;99644.56;4974809;28;20043;-74
2023/02/15 10:04:33;;;;;;;56.47;51.65;;;;;;;0.66;81.70;99652.19;4991338;28;20473;-74
2023/02/15 10:07:36;;;;;;;58.63;53.33;;;;;;;0.62;82.71;99642.88;4989576;28;20085;-75
2023/02/15 10:10:28;;;;;;;56.38;51.53;;;;;;;0.74;81.10;99641.69;4965088;28;20441;-74
2023/02/15 10:12:53;;;;;;;60.00;54.65;;;;;;;0.41;82.29;99640.44;4969267;28;20050;-74
2023/02/15 10:15:30;;;;;;;60.22;54.70;;;;;;;0.41;82.78;99639.59;4989971;28;20022;-73
2023/02/15 10:18:05;;;;;;;59.42;54.15;;;;;;;0.79;82.01;99631.50;4957173;28;20038;-74
2023/02/15 10:20:45;;;;;;;54.63;49.95;;;;;;;0.75;81.40;99616.84;4991615;28;20038;-73
2023/02/15 10:23:16;;;;;;;53.53;48.85;;;;;;;0.78;81.10;99628.97;4993863;28;20433;-74
2023/02/15 10:25:59;;;;;;;51.50;47.15;;;;;;;0.86;81.49;99624.63;4999216;28;20041;-74
2023/02/15 10:28:57;;;;;;;49.40;45.10;;;;;;;1.04;80.40;99617.53;4988837;28;20412;-74
2023/02/15 10:31:37;;;;;;;52.38;47.67;;;;;;;0.59;81.80;99611.34;4984120;28;20034;-74
2023/02/15 10:34:18;;;;;;;56.35;51.45;;;;;;;0.55;81.21;99609.97;4977069;28;20137;-74
2023/02/15 10:36:46;;;;;;;49.15;44.63;;;;;;;0.89;81.88;99605.75;4979655;28;20038;-74
2023/02/15 10:39:32;;;;;;;49.05;44.83;;;;;;;1.29;79.40;99590.25;4992981;28;20033;-75
2023/02/15 10:42:16;;;;;;;47.30;43.33;;;;;;;1.38;79.57;99604.41;4993294;28;20049;-74
2023/02/15 10:45:06;;;;;;;43.83;40.03;;;;;;;1.30;78.53;99591.94;4994240;28;20046;-74
2023/02/15 10:47:38;;;;;;;43.63;40.03;;;;;;;1.22;79.71;99583.88;4992992;28;20046;-74
2023/02/15 10:50:14;;;;;;;45.53;41.53;;;;;;;1.52;79.16;99584.50;4993208;28;20038;-74
2023/02/15 10:52:54;;;;;;;45.78;41.78;;;;;;;1.63;79.35;99581.59;4992979;28;20042;-74
2023/02/15 10:55:36;;;;;;;44.20;40.10;;;;;;;1.40;79.29;99576.75;4976163;28;20134;-74
2023/02/15 10:58:19;;;;;;;38.85;35.35;;;;;;;1.76;77.33;99576.72;4959332;28;20104;-74
2023/02/15 11:00:51;;;;;;;41.35;37.47;;;;;;;2.02;77.92;99564.28;4977379;28;20034;-74
2023/02/15 11:03:30;;;;;;;41.72;37.92;;;;;;;1.82;77.84;99555.66;4992014;28;20049;-74
2023/02/15 11:06:13;;;;;;;39.90;36.30;;;;;;;1.98;77.22;99560.28;4965849;28;20054;-74
2023/02/15 11:08:43;;;;;;;38.38;35.08;;;;;;;2.09;77.46;99558.19;4975217;28;20042;-75
2023/02/15 11:11:13;;;;;;;37.33;33.97;;;;;;;2.24;76.69;99555.75;4979333;28;20116;-74
2023/02/15 11:13:44;;;;;;;34.13;31.05;;;;;;;1.52;79.95;99556.13;4992606;28;20026;-74
2023/02/15 11:16:25;;;;;;;42.33;38.63;;;;;;;1.29;79.87;99546.97;4976186;28;20045;-74
2023/02/15 11:19:03;;;;;;;41.50;37.90;;;;;;;1.53;79.46;99559.59;4991735;28;20045;-74
2023/02/15 11:21:38;;;;;;;40.88;37.47;;;;;;;1.77;78.91;99557.16;4968038;28;20031;-74
2023/02/15 11:24:18;;;;;;;37.35;33.97;;;;;;;1.44;78.87;99560.53;4972732;28;20041;-74
2023/02/15 11:26:51;;;;;;;38.47;35.08;;;;;;;1.49;79.29;99558.25;4980607;28;20042;-74
2023/02/15 11:29:29;;;;;;;38.00;34.60;;;;;;;1.31;79.08;99567.06;4991915;28;20037;-74
2023/02/15 11:32:02;;;;;;;35.65;32.35;;;;;;;1.56;77.77;99564.63;4991542;28;20095;-74
2023/02/15 11:34:36;;;;;;;38.10;34.70;;;;;;;1.48;79.67;99560.06;4991947;28;20049;-75
2023/02/15 11:37:12;;;;;;;39.53;36.03;;;;;;;1.80;78.69;99556.81;4991412;28;20042;-74
2023/02/15 11:39:38;;;;;;;38.20;34.95;;;;;;;1.67;79.00;99561.72;4991981;28;20116;-74
2023/02/15 11:42:12;;;;;;;40.03;36.60;;;;;;;1.62;79.19;99556.03;4993034;28;20707;-74
2023/02/15 11:44:45;;;;;;;40.92;37.33;;;;;;;1.40;80.11;99557.38;4991812;28;20034;-74
2023/02/15 11:47:11;;;;;;;39.20;35.80;;;;;;;1.78;78.84;99542.88;4991265;28;20062;-74
2023/02/15 11:49:38;;;;;;;42.42;38.72;;;;;;;1.27;79.62;99540.97;4979265;28;20142;-74
2023/02/15 11:52:10;;;;;;;42.05;38.35;;;;;;;1.69;78.63;99539.31;4985959;28;20114;-74
2023/02/15 11:54:40;;;;;;;42.55;38.53;;;;;;;1.53;79.36;99539.22;4969882;28;20027;-74